ADDS METAR Data INFO
IDs: Format: Raw Decoded Include TAF

Data at: 1900 UTC 23 Apr 2018

KCID 231852Z 07015KT 10SM CLR 21/M04 A3011 RMK AO2 SLP196 T02111039
KCID 231752Z 06015G21KT 10SM CLR 21/M04 A3013 RMK AO2 SLP201 T02111044 10211 20089 58019
KCID 231652Z 06016G22KT 10SM CLR 20/M05 A3015 RMK AO2 SLP209 T02001050
KCID 231552Z 05011KT 10SM CLR 18/M04 A3017 RMK AO2 SLP217 T01781044
KCID 231452Z 06010KT 10SM CLR 16/M05 A3018 RMK AO2 SLP221 T01611050 58009
KCID 231352Z 06008KT 10SM CLR 13/M02 A3020 RMK AO2 SLP227 T01281022
KCID 231252Z 07010KT 10SM CLR 10/M02 A3021 RMK AO2 SLP230 T01001022
KCID 231152Z 06009KT 10SM CLR 09/M02 A3021 RMK AO2 SLP230 T00891017 10100 20067 53009
KCID 231052Z 06009KT 10SM CLR 09/M02 A3019 RMK AO2 SLP225 T00891017
KCID 230952Z AUTO 06009KT 10SM CLR 09/M02 A3018 RMK AO2 SLP220 T00941017
KCID 230852Z AUTO 06011KT 10SM CLR 09/M02 A3018 RMK AO2 SLP220 T00941017 56004
KCID 230752Z AUTO 06010KT 10SM CLR 09/M02 A3018 RMK AO2 SLP221 T00941017
KCID 230652Z AUTO 07009KT 10SM CLR 09/M02 A3019 RMK AO2 SLP223 T00941017
KCID 230552Z AUTO 10006KT 10SM FEW100 07/M02 A3019 RMK AO2 SLP226 T00721022 10172 20072 402060061 56002
KCID 230452Z AUTO 10006KT 10SM CLR 09/M02 A3019 RMK AO2 SLP226 T00941017
KCID 230352Z 08010KT 10SM FEW100 11/M01 A3018 RMK AO2 SLP221 T01111006
KCID 230252Z 07009KT 10SM CLR 12/00 A3020 RMK AO2 SLP227 T01170000 51005
KCID 230152Z 08010KT 10SM CLR 12/00 A3020 RMK AO2 SLP228 T01220000
KCID 230052Z 08009KT 10SM CLR 15/00 A3019 RMK AO2 SLP226 T01500000
KCID 222352Z 07012KT 10SM CLR 17/M01 A3018 RMK AO2 SLP222 T01721006 10206 20161 55003
KCID 222252Z 07015KT 10SM CLR 19/M01 A3018 RMK AO2 SLP220 T01941011
KCID 222152Z 09014KT 10SM CLR 21/M02 A3018 RMK AO2 SLP219 T02061017
KCID 222052Z 09014KT 10SM CLR 19/M02 A3019 RMK AO2 SLP224 T01941017 58018
KCID 221952Z 07015G21KT 10SM CLR 20/M03 A3021 RMK AO2 SLP229 T02001028
KCID 221852Z 10016G21KT 10SM CLR 19/M04 A3023 RMK AO2 SLP238 T01891044
KCID 221752Z 09014G21KT 10SM CLR 18/M04 A3024 RMK AO2 SLP242 T01781044 10178 20072 58012
KCID 221652Z 11016G21KT 10SM CLR 16/M05 A3026 RMK AO2 SLP247 T01611050
KCID 221552Z 10015G22KT 10SM CLR 15/M03 A3027 RMK AO2 SLP252 T01501033
KCID 221452Z 09015KT 10SM CLR 13/M03 A3028 RMK AO2 SLP257 T01281033 58003
KCID 221352Z 10015KT 10SM CLR 11/M04 A3028 RMK AO2 SLP258 T01111039
KCID 221252Z 09010KT 10SM CLR 08/M04 A3030 RMK AO2 SLP263 T00831039
KCID 221152Z 08009KT 10SM CLR 07/M04 A3029 RMK AO2 SLP260 T00721039 10083 20061 53001
KCID 221052Z 08010KT 10SM CLR 07/M03 A3028 RMK AO2 SLP257 T00721028
KCID 220952Z 08011KT 10SM CLR 07/M01 A3028 RMK AO2 SLP255 T00721006
KCID 220852Z AUTO 08008KT 10SM CLR 07/01 A3029 RMK AO2 SLP258 T00670011 55005
KCID 220752Z AUTO 07008KT 10SM CLR 07/01 A3027 RMK AO2 SLP254 T00670011